createdAt,value
2023-02-28T00:01:44.310Z,2.20
2023-02-28T00:04:12.260Z,1.93
2023-02-28T00:06:40.199Z,2.03
2023-02-28T00:09:08.162Z,2.07
2023-02-28T00:11:36.184Z,2.40
2023-02-28T00:14:04.207Z,2.00
2023-02-28T00:16:32.101Z,2.13
2023-02-28T00:19:00.100Z,2.17
2023-02-28T00:21:28.340Z,2.40
2023-02-28T00:23:56.391Z,2.20
2023-02-28T00:26:24.518Z,2.33
2023-02-28T00:28:53.989Z,2.27
2023-02-28T00:31:22.069Z,2.07
2023-02-28T00:33:51.876Z,2.43
2023-02-28T00:36:19.950Z,1.80
2023-02-28T00:38:47.918Z,1.80
2023-02-28T00:41:16.179Z,1.90
2023-02-28T00:43:44.120Z,2.00
2023-02-28T00:46:12.053Z,2.10
2023-02-28T00:48:40.100Z,1.80
2023-02-28T00:51:08.065Z,1.87
2023-02-28T00:53:36.102Z,2.30
2023-02-28T00:56:04.719Z,2.37
2023-02-28T00:58:32.724Z,2.63
2023-02-28T01:01:00.781Z,2.33
2023-02-28T01:03:28.773Z,2.27
2023-02-28T01:05:56.814Z,2.53
2023-02-28T01:08:26.981Z,2.03
2023-02-28T01:10:55.524Z,2.17
2023-02-28T01:13:24.283Z,1.97
2023-02-28T01:15:57.078Z,1.93
2023-02-28T01:18:25.581Z,2.00
2023-02-28T01:20:53.695Z,2.23
2023-02-28T01:23:24.469Z,2.20
2023-02-28T01:25:53.983Z,2.20
2023-02-28T01:28:22.559Z,2.57
2023-02-28T01:30:52.693Z,2.13
2023-02-28T01:33:20.899Z,2.10
2023-02-28T01:35:49.357Z,2.50
2023-02-28T01:38:22.619Z,2.00
2023-02-28T01:40:51.851Z,2.17
2023-02-28T01:44:27.385Z,2.40
2023-02-28T01:46:55.255Z,2.30
2023-02-28T01:49:23.210Z,2.57
2023-02-28T01:51:55.912Z,2.20
2023-02-28T01:54:30.555Z,2.40
2023-02-28T01:57:09.966Z,2.27
2023-02-28T01:59:59.459Z,2.70
2023-02-28T02:02:29.835Z,2.50
2023-02-28T02:05:21.566Z,2.47
2023-02-28T02:07:57.911Z,2.40
2023-02-28T02:10:54.895Z,2.40
2023-02-28T02:13:53.760Z,2.30
2023-02-28T02:16:27.186Z,2.40
2023-02-28T02:19:30.793Z,2.30
2023-02-28T02:22:46.266Z,2.40
2023-02-28T02:25:40.447Z,2.40
2023-02-28T02:29:04.297Z,2.60
2023-02-28T02:32:18.446Z,2.30
2023-02-28T02:35:32.615Z,2.20
2023-02-28T02:38:35.380Z,2.40
2023-02-28T02:41:47.338Z,2.33
2023-02-28T02:44:29.731Z,2.23
2023-02-28T02:47:12.433Z,2.83
2023-02-28T02:49:48.395Z,2.47
2023-02-28T02:52:22.890Z,2.60
2023-02-28T02:54:56.684Z,2.47
2023-02-28T02:57:40.195Z,2.77
2023-02-28T03:00:09.986Z,3.50
2023-02-28T03:02:40.240Z,3.20
2023-02-28T03:05:49.981Z,2.70
2023-02-28T03:08:18.352Z,2.60
2023-02-28T03:10:52.082Z,2.50
2023-02-28T03:14:10.976Z,2.63
2023-02-28T03:16:59.353Z,2.77
2023-02-28T03:20:13.664Z,2.53
2023-02-28T03:23:03.282Z,2.80
2023-02-28T03:25:57.126Z,2.97
2023-02-28T03:28:24.865Z,2.40
2023-02-28T03:31:04.887Z,2.50
2023-02-28T03:33:55.967Z,2.60
2023-02-28T03:36:37.379Z,2.47
2023-02-28T03:39:37.893Z,2.90
2023-02-28T03:42:19.017Z,2.50
2023-02-28T03:44:57.829Z,2.43
2023-02-28T03:47:44.634Z,3.00
2023-02-28T03:50:23.334Z,2.80
2023-02-28T03:53:20.418Z,2.87
2023-02-28T03:56:12.372Z,2.60
2023-02-28T03:59:06.334Z,2.97
2023-02-28T04:01:42.165Z,2.67
2023-02-28T04:04:12.438Z,3.30
2023-02-28T04:06:42.040Z,3.43
2023-02-28T04:09:14.668Z,3.57
2023-02-28T04:11:53.282Z,3.70
2023-02-28T04:14:21.391Z,3.00
2023-02-28T04:16:49.929Z,3.40
2023-02-28T04:19:18.437Z,3.50
2023-02-28T04:21:52.860Z,3.47
2023-02-28T04:24:28.961Z,3.30
2023-02-28T04:26:59.134Z,3.57
2023-02-28T04:29:32.732Z,3.50
2023-02-28T04:32:02.753Z,3.43
2023-02-28T04:34:34.391Z,3.40
2023-02-28T04:37:12.960Z,3.37
2023-02-28T04:39:45.849Z,3.33
2023-02-28T04:42:14.995Z,3.93
2023-02-28T04:44:43.112Z,3.00
2023-02-28T04:47:11.147Z,3.50
2023-02-28T04:49:39.299Z,3.57
2023-02-28T04:52:08.494Z,3.73
2023-02-28T04:54:36.442Z,4.13
2023-02-28T04:57:05.378Z,3.63
2023-02-28T04:59:33.846Z,3.77
2023-02-28T05:02:07.498Z,3.73
2023-02-28T05:04:36.582Z,4.43
2023-02-28T05:07:05.120Z,4.10
2023-02-28T05:09:34.355Z,3.70
2023-02-28T05:12:02.404Z,4.00
2023-02-28T05:14:30.366Z,3.70
2023-02-28T05:16:58.246Z,3.57
2023-02-28T05:19:28.887Z,3.67
2023-02-28T05:21:57.249Z,3.80
2023-02-28T05:24:25.235Z,4.70
2023-02-28T05:26:55.786Z,4.20
2023-02-28T05:29:23.936Z,3.57
2023-02-28T05:31:52.041Z,4.10
2023-02-28T05:34:20.237Z,3.97
2023-02-28T05:36:48.255Z,4.10
2023-02-28T05:39:16.210Z,3.67
2023-02-28T05:41:45.502Z,3.90
2023-02-28T05:44:13.662Z,4.10
2023-02-28T05:46:41.752Z,4.40
2023-02-28T05:49:09.792Z,4.17
2023-02-28T05:51:40.716Z,4.23
2023-02-28T05:54:09.574Z,5.00
2023-02-28T05:56:40.924Z,4.23
2023-02-28T05:59:08.840Z,4.60
2023-02-28T06:01:39.461Z,5.03
2023-02-28T06:04:22.192Z,4.40
2023-02-28T06:06:53.772Z,3.70
2023-02-28T06:09:21.696Z,4.27
2023-02-28T06:11:49.763Z,5.00
2023-02-28T06:14:21.558Z,5.10
2023-02-28T06:16:49.715Z,4.50
2023-02-28T06:19:18.136Z,4.20
2023-02-28T06:21:49.694Z,4.30
2023-02-28T06:24:17.615Z,4.20
2023-02-28T06:26:45.681Z,5.40
2023-02-28T06:29:19.269Z,5.77
2023-02-28T06:31:48.000Z,4.53
2023-02-28T06:34:16.298Z,4.37
2023-02-28T06:36:44.695Z,4.70
2023-02-28T06:39:12.887Z,5.20
2023-02-28T06:41:54.053Z,4.97
2023-02-28T06:44:27.626Z,4.70
2023-02-28T06:46:55.540Z,5.17
2023-02-28T06:49:26.270Z,4.43
2023-02-28T06:51:55.055Z,4.80
2023-02-28T06:54:23.247Z,4.87
2023-02-28T06:56:51.217Z,5.13
2023-02-28T06:59:19.237Z,4.60
2023-02-28T07:01:59.638Z,5.67
2023-02-28T07:04:27.824Z,7.27
2023-02-28T07:06:57.938Z,6.63
2023-02-28T07:09:30.717Z,5.50
2023-02-28T07:11:58.657Z,5.50
2023-02-28T07:14:26.997Z,6.40
2023-02-28T07:16:54.883Z,6.27
2023-02-28T07:19:22.768Z,4.83
2023-02-28T07:21:50.781Z,4.70
2023-02-28T07:24:18.940Z,5.07
2023-02-28T07:26:46.867Z,5.27
2023-02-28T07:29:14.747Z,5.00
2023-02-28T07:31:42.659Z,5.47
2023-02-28T07:34:10.609Z,4.60
2023-02-28T07:36:38.557Z,4.27
2023-02-28T07:39:06.452Z,4.87
2023-02-28T07:41:35.036Z,4.57
2023-02-28T07:44:04.134Z,4.70
2023-02-28T07:46:36.831Z,4.67
2023-02-28T07:49:06.631Z,5.50
2023-02-28T07:51:34.986Z,4.80
2023-02-28T07:54:03.445Z,4.83
2023-02-28T07:56:31.967Z,4.80
2023-02-28T07:59:00.102Z,5.07
2023-02-28T08:01:28.557Z,5.10
2023-02-28T08:03:57.964Z,5.17
2023-02-28T08:06:27.286Z,5.00
2023-02-28T08:08:56.972Z,5.07
2023-02-28T08:11:24.971Z,4.60
2023-02-28T08:13:53.155Z,4.13
2023-02-28T08:16:23.280Z,3.57
2023-02-28T08:18:53.170Z,3.83
2023-02-28T08:21:22.519Z,3.73
2023-02-28T08:23:52.234Z,3.10
2023-02-28T08:26:21.228Z,4.33
2023-02-28T08:28:49.291Z,3.43
2023-02-28T08:31:18.212Z,2.60
2023-02-28T08:33:46.821Z,2.60
2023-02-28T08:36:15.958Z,3.00
2023-02-28T08:38:44.927Z,2.90
2023-02-28T08:41:16.721Z,2.97
2023-02-28T08:43:44.760Z,3.63
2023-02-28T08:46:15.035Z,3.67
2023-02-28T08:48:43.066Z,3.20
2023-02-28T08:51:19.594Z,2.00
2023-02-28T08:53:47.649Z,2.43
2023-02-28T08:56:20.423Z,2.60
2023-02-28T08:58:51.165Z,2.20
2023-02-28T09:01:37.570Z,2.10
2023-02-28T09:04:07.989Z,2.30
2023-02-28T09:06:36.129Z,1.53
2023-02-28T09:09:06.991Z,1.40
2023-02-28T09:11:36.797Z,0.83
2023-02-28T09:14:04.929Z,1.67
2023-02-28T09:16:35.481Z,0.97
2023-02-28T09:19:03.560Z,0.80
2023-02-28T09:21:31.793Z,1.77
2023-02-28T09:23:59.760Z,0.97
2023-02-28T09:26:34.936Z,0.77
2023-02-28T09:29:11.087Z,2.17
2023-02-28T09:31:39.037Z,1.00
2023-02-28T09:34:07.664Z,0.90
2023-02-28T09:36:45.253Z,1.23
2023-02-28T09:39:16.379Z,1.47
2023-02-28T09:41:51.065Z,0.50
2023-02-28T09:44:40.327Z,0.63
2023-02-28T09:47:42.328Z,0.77
2023-02-28T09:50:39.819Z,0.97
2023-02-28T09:53:40.811Z,0.80
2023-02-28T09:56:42.881Z,0.77
2023-02-28T09:59:32.580Z,0.77
2023-02-28T10:02:34.117Z,1.10
2023-02-28T10:05:19.995Z,1.00
2023-02-28T10:08:29.062Z,1.10
2023-02-28T10:11:07.553Z,0.83
2023-02-28T10:14:15.307Z,0.90
2023-02-28T10:17:00.562Z,1.47
2023-02-28T10:20:14.538Z,1.13
2023-02-28T10:23:35.768Z,1.10
2023-02-28T10:26:19.665Z,1.23
2023-02-28T10:28:47.727Z,0.90
2023-02-28T10:31:21.316Z,1.20
2023-02-28T10:33:49.566Z,2.33
2023-02-28T10:36:22.168Z,1.20
2023-02-28T10:38:51.885Z,1.43
2023-02-28T10:41:37.179Z,1.33
2023-02-28T10:44:23.804Z,1.20
2023-02-28T10:46:52.829Z,1.20
2023-02-28T10:49:30.822Z,1.37
2023-02-28T10:52:02.290Z,1.20
2023-02-28T10:54:38.754Z,1.00
2023-02-28T10:57:29.404Z,0.97
2023-02-28T11:00:26.433Z,1.40
2023-02-28T11:02:54.397Z,1.03
2023-02-28T11:05:36.225Z,1.03
2023-02-28T11:08:19.199Z,1.00
2023-02-28T11:11:01.635Z,1.27
2023-02-28T11:13:38.741Z,1.33
2023-02-28T11:16:12.501Z,1.30
2023-02-28T11:18:56.161Z,1.27
2023-02-28T11:21:41.365Z,1.30
2023-02-28T11:24:34.270Z,1.27
2023-02-28T11:27:02.814Z,1.30
2023-02-28T11:29:35.794Z,1.20
2023-02-28T11:32:21.284Z,1.63
2023-02-28T11:35:10.124Z,1.10
2023-02-28T11:37:44.784Z,1.20
2023-02-28T11:40:28.201Z,1.30
2023-02-28T11:44:03.674Z,1.37
2023-02-28T11:46:54.334Z,1.43
2023-02-28T11:49:39.401Z,1.23
2023-02-28T11:52:56.507Z,1.30
2023-02-28T11:56:08.987Z,1.93
2023-02-28T11:59:14.734Z,1.23
2023-02-28T12:02:17.253Z,1.50
2023-02-28T12:05:07.863Z,1.67
2023-02-28T12:08:25.041Z,1.30
2023-02-28T12:11:10.623Z,1.60
2023-02-28T12:14:23.034Z,1.50
2023-02-28T12:17:13.140Z,1.40
2023-02-28T12:20:34.784Z,1.17
2023-02-28T12:23:47.951Z,1.50
2023-02-28T12:26:45.045Z,1.30
2023-02-28T12:29:45.439Z,1.33
2023-02-28T12:32:27.738Z,1.40
2023-02-28T12:35:23.856Z,1.03
2023-02-28T12:38:25.330Z,1.30
2023-02-28T12:41:15.066Z,1.80
2023-02-28T12:43:56.476Z,1.47
2023-02-28T12:46:49.907Z,1.30
2023-02-28T12:49:47.368Z,1.73
2023-02-28T12:52:25.925Z,1.50
2023-02-28T12:55:09.682Z,1.50
2023-02-28T12:57:58.780Z,1.60
2023-02-28T13:00:37.862Z,1.67
2023-02-28T13:03:33.124Z,1.40
2023-02-28T13:06:37.515Z,1.57
2023-02-28T13:09:16.607Z,1.90
2023-02-28T13:11:55.467Z,1.70
2023-02-28T13:14:39.192Z,1.50
2023-02-28T13:17:16.146Z,2.07
2023-02-28T13:19:55.729Z,1.43
2023-02-28T13:22:45.582Z,2.00
2023-02-28T13:25:34.995Z,1.60
2023-02-28T13:28:11.062Z,1.80
2023-02-28T13:30:58.189Z,2.00
2023-02-28T13:33:50.604Z,1.80
2023-02-28T13:36:18.463Z,1.57
2023-02-28T13:39:37.713Z,1.40
2023-02-28T13:42:50.541Z,3.40
2023-02-28T13:45:24.976Z,7.17
2023-02-28T13:48:18.917Z,25.23
2023-02-28T13:50:50.502Z,3.47
2023-02-28T13:53:18.296Z,2.53
2023-02-28T13:56:22.834Z,5.90
2023-02-28T13:59:36.415Z,2.00
2023-02-28T14:02:28.968Z,1.77
2023-02-28T14:05:26.975Z,1.93
2023-02-28T14:08:00.588Z,1.93
2023-02-28T14:10:48.027Z,2.30
2023-02-28T14:13:47.982Z,1.73
2023-02-28T14:16:23.046Z,2.20
2023-02-28T14:19:06.225Z,2.20
2023-02-28T14:21:37.299Z,2.40
2023-02-28T14:24:43.055Z,2.03
2023-02-28T14:27:45.552Z,1.90
2023-02-28T14:31:02.457Z,2.00
2023-02-28T14:34:21.245Z,2.37
2023-02-28T14:36:51.894Z,2.17
2023-02-28T14:39:35.419Z,2.43
2023-02-28T14:42:38.861Z,2.30
2023-02-28T14:45:07.896Z,2.03
2023-02-28T14:47:37.002Z,2.00
2023-02-28T14:50:06.456Z,2.20
2023-02-28T14:52:36.242Z,2.13
2023-02-28T14:55:16.452Z,2.57
2023-02-28T14:58:20.496Z,7.40
2023-02-28T15:00:51.833Z,4.23
2023-02-28T15:03:32.775Z,3.77
2023-02-28T15:06:18.883Z,4.27
2023-02-28T15:08:47.254Z,2.67
2023-02-28T15:11:23.274Z,2.57
2023-02-28T15:13:56.536Z,2.47
2023-02-28T15:16:39.815Z,2.10
2023-02-28T15:19:37.086Z,2.37
2023-02-28T15:22:17.863Z,2.27
2023-02-28T15:24:53.416Z,2.37
2023-02-28T15:27:33.294Z,2.40
2023-02-28T15:30:10.045Z,1.90
2023-02-28T15:32:40.873Z,2.30
2023-02-28T15:35:32.615Z,1.80
2023-02-28T15:38:27.558Z,2.00
2023-02-28T15:40:59.816Z,2.23
2023-02-28T15:43:34.909Z,1.77
2023-02-28T15:46:14.109Z,2.23
2023-02-28T15:49:22.120Z,2.00
2023-02-28T15:51:53.490Z,1.97
2023-02-28T15:54:34.135Z,4.10
2023-02-28T15:57:13.834Z,2.33
2023-02-28T15:59:58.522Z,2.97
2023-02-28T16:02:38.630Z,2.53
2023-02-28T16:05:12.110Z,7.40
2023-02-28T16:07:44.444Z,20.03
2023-02-28T16:10:16.859Z,3.13
2023-02-28T16:12:45.727Z,4.47
2023-02-28T16:15:29.581Z,2.07
2023-02-28T16:17:59.130Z,2.33
2023-02-28T16:20:32.269Z,1.97
2023-02-28T16:23:02.827Z,2.17
2023-02-28T16:25:39.613Z,2.03
2023-02-28T16:28:33.350Z,1.90
2023-02-28T16:31:04.807Z,2.03
2023-02-28T16:33:34.144Z,2.00
2023-02-28T16:36:02.268Z,2.00
2023-02-28T16:38:30.272Z,2.10
2023-02-28T16:41:02.106Z,1.80
2023-02-28T16:43:30.405Z,2.10
2023-02-28T16:46:01.250Z,2.60
2023-02-28T16:48:29.401Z,2.17
2023-02-28T16:50:57.350Z,2.33
2023-02-28T16:53:25.213Z,2.13
2023-02-28T16:55:53.047Z,2.50
2023-02-28T16:58:22.647Z,1.97
2023-02-28T17:00:50.824Z,2.30
2023-02-28T17:03:33.408Z,2.27
2023-02-28T17:06:02.785Z,2.20
2023-02-28T17:08:33.079Z,2.40
2023-02-28T17:11:02.515Z,2.43
2023-02-28T17:13:30.677Z,2.70
2023-02-28T17:15:58.639Z,2.17
2023-02-28T17:18:27.632Z,2.63
2023-02-28T17:20:55.497Z,2.63
2023-02-28T17:23:23.398Z,12.57
2023-02-28T17:25:58.223Z,7.87
2023-02-28T17:28:26.494Z,4.90
2023-02-28T17:30:54.411Z,3.23
2023-02-28T17:33:22.387Z,3.17
2023-02-28T17:35:50.471Z,2.77
2023-02-28T17:38:20.495Z,2.80
2023-02-28T17:40:48.525Z,2.33
2023-02-28T17:43:16.680Z,3.53
2023-02-28T17:45:47.448Z,3.47
2023-02-28T17:48:17.880Z,3.57
2023-02-28T17:50:45.843Z,4.73
2023-02-28T17:53:14.956Z,4.57
2023-02-28T17:55:42.843Z,4.90
2023-02-28T17:58:13.774Z,4.80
2023-02-28T18:00:41.910Z,5.23
2023-02-28T18:03:10.541Z,6.57
2023-02-28T18:05:38.585Z,7.83
2023-02-28T18:08:06.416Z,5.40
2023-02-28T18:10:34.597Z,3.03
2023-02-28T18:13:04.493Z,3.00
2023-02-28T18:15:32.354Z,3.20
2023-02-28T18:18:00.468Z,3.33
2023-02-28T18:20:29.622Z,3.67
2023-02-28T18:22:57.550Z,3.10
2023-02-28T18:25:25.998Z,3.10
2023-02-28T18:27:54.496Z,4.23
2023-02-28T18:30:22.904Z,3.70
2023-02-28T18:32:51.051Z,3.50
2023-02-28T18:35:34.694Z,2.57
2023-02-28T18:38:19.255Z,3.50
2023-02-28T18:41:01.002Z,3.57
2023-02-28T18:43:32.330Z,3.13
2023-02-28T18:46:12.969Z,3.80
2023-02-28T18:48:41.597Z,3.70
2023-02-28T18:51:20.771Z,3.77
2023-02-28T18:53:48.780Z,4.37
2023-02-28T18:56:23.071Z,4.20
2023-02-28T18:58:52.339Z,4.90
2023-02-28T19:01:29.975Z,7.43
2023-02-28T19:04:03.365Z,8.27
2023-02-28T19:06:33.174Z,8.50
2023-02-28T19:09:04.113Z,8.57
2023-02-28T19:11:32.620Z,9.10
2023-02-28T19:14:01.225Z,6.97
2023-02-28T19:16:29.771Z,9.37
2023-02-28T19:18:57.903Z,11.90
2023-02-28T19:21:26.205Z,10.20
2023-02-28T19:23:54.244Z,11.07
2023-02-28T19:26:25.383Z,9.73
2023-02-28T19:28:53.564Z,9.27
2023-02-28T19:31:25.745Z,9.90
2023-02-28T19:33:54.152Z,9.80
2023-02-28T19:36:22.459Z,8.03
2023-02-28T19:38:50.666Z,8.67
2023-02-28T19:41:19.549Z,8.43
2023-02-28T19:43:47.903Z,8.37
2023-02-28T19:46:16.125Z,8.53
2023-02-28T19:48:44.890Z,7.73
2023-02-28T19:53:44.897Z,10.30
2023-02-28T19:56:13.065Z,9.40
2023-02-28T19:58:41.289Z,9.07
2023-02-28T20:01:16.918Z,9.40
2023-02-28T20:03:49.924Z,8.97
2023-02-28T20:06:18.468Z,8.53
2023-02-28T20:08:47.639Z,8.73
2023-02-28T20:11:17.462Z,8.10
2023-02-28T20:13:45.848Z,7.30
2023-02-28T20:16:15.675Z,8.93
2023-02-28T20:18:44.547Z,10.10
2023-02-28T20:21:14.365Z,8.70
2023-02-28T20:23:43.357Z,8.60
2023-02-28T20:26:12.629Z,9.53
2023-02-28T20:28:41.258Z,7.13
2023-02-28T20:31:25.466Z,8.20
2023-02-28T20:33:53.588Z,9.57
2023-02-28T20:36:22.699Z,10.33
2023-02-28T20:38:53.365Z,10.07
2023-02-28T20:41:22.641Z,11.00
2023-02-28T20:43:59.064Z,9.87
2023-02-28T20:46:30.141Z,10.20
2023-02-28T20:48:58.626Z,9.90
2023-02-28T20:51:26.700Z,10.10
2023-02-28T20:53:54.605Z,10.20
2023-02-28T20:56:23.860Z,9.50
2023-02-28T20:58:58.053Z,10.70
2023-02-28T21:01:28.752Z,10.83
2023-02-28T21:04:06.014Z,10.90
2023-02-28T21:06:47.482Z,15.97
2023-02-28T21:09:16.403Z,12.03
2023-02-28T21:11:45.909Z,12.77
2023-02-28T21:14:18.290Z,15.83
2023-02-28T21:16:46.876Z,11.43
2023-02-28T21:19:16.188Z,15.87
2023-02-28T21:21:46.779Z,13.17
2023-02-28T21:24:19.265Z,12.50
2023-02-28T21:26:48.543Z,12.87
2023-02-28T21:29:16.739Z,13.90
2023-02-28T21:31:44.690Z,15.83
2023-02-28T21:34:13.893Z,14.87
2023-02-28T21:36:47.207Z,15.70
2023-02-28T21:39:29.940Z,13.37
2023-02-28T21:42:03.432Z,13.20
2023-02-28T21:44:34.411Z,12.80
2023-02-28T21:47:02.693Z,12.73
2023-02-28T21:49:31.101Z,11.67
2023-02-28T21:51:59.488Z,12.33
2023-02-28T21:54:27.596Z,11.97
2023-02-28T21:56:56.229Z,12.90
2023-02-28T21:59:24.346Z,11.60
2023-02-28T22:01:52.326Z,13.13
2023-02-28T22:04:23.180Z,13.50
2023-02-28T22:06:59.493Z,12.67
2023-02-28T22:09:27.766Z,13.53
2023-02-28T22:11:57.452Z,13.03
2023-02-28T22:14:25.530Z,12.63
2023-02-28T22:16:55.014Z,12.83
2023-02-28T22:19:24.038Z,11.37
2023-02-28T22:21:53.822Z,11.63
2023-02-28T22:24:24.317Z,12.73
2023-02-28T22:26:53.791Z,12.33
2023-02-28T22:29:22.149Z,10.83
2023-02-28T22:31:50.656Z,12.83
2023-02-28T22:34:20.008Z,12.90
2023-02-28T22:36:48.010Z,12.77
2023-02-28T22:39:16.326Z,12.40
2023-02-28T22:41:44.212Z,12.83
2023-02-28T22:44:12.288Z,14.03
2023-02-28T22:46:40.347Z,11.97
2023-02-28T22:49:08.448Z,12.20
2023-02-28T22:51:36.515Z,10.23
2023-02-28T22:54:05.074Z,10.13
2023-02-28T22:56:33.558Z,10.27
2023-02-28T22:59:03.615Z,10.23
2023-02-28T23:01:34.606Z,11.03
2023-02-28T23:04:02.966Z,11.63
2023-02-28T23:06:44.242Z,12.13
2023-02-28T23:09:23.537Z,10.73
2023-02-28T23:11:52.169Z,11.83
2023-02-28T23:14:21.629Z,14.90
2023-02-28T23:16:54.079Z,15.10
2023-02-28T23:19:29.959Z,17.07
2023-02-28T23:22:00.160Z,14.03
2023-02-28T23:24:33.163Z,15.00
2023-02-28T23:27:05.870Z,15.53
2023-02-28T23:29:35.768Z,15.10
2023-02-28T23:32:04.420Z,16.90
2023-02-28T23:34:32.450Z,16.27
2023-02-28T23:37:02.130Z,13.57
2023-02-28T23:39:31.510Z,14.33
2023-02-28T23:42:00.053Z,14.77
2023-02-28T23:44:27.984Z,14.20
2023-02-28T23:46:56.041Z,14.10
2023-02-28T23:49:24.011Z,13.87
2023-02-28T23:51:54.378Z,12.67
2023-02-28T23:54:22.735Z,12.87
2023-02-28T23:56:50.700Z,11.60
2023-02-28T23:59:19.271Z,13.17
